MMLP/LAP METAR and TAF weather

Enter ICAO airport designator
Station Type Date Time Source
MMLP METAR 2019/10/23 04:40 UTC NOAA

MMLP 230440Z 15005KT 10SM SKC 22/18 A2992


Station Type Date Time Source
MMLP Decoded METAR 2019/10/23 04:40 UTC NOAA

La Paz International Airport, Mexico (MMLP) 24-04N 110-22W
Oct 23, 2019 - 12:40 AM EDT / 2019.10.23 0440 UTC
Wind: from the SSE (150 degrees) at 6 MPH (5 KT):0
Visibility: 10 mile(s):0
Sky conditions: clear
Temperature: 71 F (22 C)
Dew Point: 64 F (18 C)
Relative Humidity: 78%
Pressure (altimeter): 29.92 in. Hg (1013 hPa)
ob: MMLP 230440Z 15005KT 10SM SKC 22/18 A2992
cycle: 4

Station Type Date Time Source
MMLP TAF 2019/10/23 06:58 UTC NOAA

TAF MMLP 230458Z 2306/2406 15005KT P6SM SKC
FM231800 36008KT P6SM SCT030
BECMG 2403/2405 26004KT SKC

Example: see airport list